• Join FlightAware (Why Join?)
  • Login
  • US Flag 
02:48AM EDT


 

Airport Tracker/Info


-or-


 

Live Flight TrackerFlight Track Log ✈ N717AN ✈ 21-Jun-2013 ✈ EGLL / LHR - KJFK

Flight Track Log - Related Links

Times and Time Zones

All times are in EDT time to prevent confusion due to time zone crossing. See the N717AN flight status page for this flight to view local times or setup timezone preferences in your user account.

Time Position Orientation Groundspeed Altitude Reporting Facility
EDT Latitude Longitude Course Direction KTS MPH feet Rate Location/Type
06:02AM 51.4646 -0.5010 269° West 198 228 1,100  Level FlightAware UK
06:03AM 51.4642 -0.5327 268° West 178 205 2,200 2,460 Climbing FlightAware ADS-B
06:03AM 51.4638 -0.5537 268° West 181 208 2,700 1,920 Climbing FlightAware ADS-B
06:03AM 51.4634 -0.5742 268° West 182 209 3,200 1,500 Climbing FlightAware ADS-B
06:04AM 51.4630 -0.5955 268° West 194 223 3,500 1,080 Climbing FlightAware ADS-B
06:04AM 51.4628 -0.6055 268° West 201 231 3,600 1,080 Climbing FlightAware ADS-B
06:04AM 51.4624 -0.6128 265° West 206 237 3,700 660 Climbing FlightAware ADS-B
06:04AM 51.4619 -0.6181 261° West 211 243 3,700 540 Level FlightAware ADS-B
06:04AM 51.4603 -0.6295 257° West 221 254 3,800 1,200 Climbing FlightAware ADS-B
06:04AM 51.4595 -0.6344 255° West 226 260 3,900 960 Climbing FlightAware ADS-B
06:04AM 51.4567 -0.6503 254° West 237 273 4,000 780 Climbing FlightAware ADS-B
06:04AM 51.4553 -0.6601 257° West 242 278 4,100 1,500 Climbing FlightAware ADS-B
06:04AM 51.4544 -0.6706 262° West 248 285 4,300 1,080 Climbing FlightAware ADS-B
06:04AM 51.4540 -0.6794 266° West 254 292 4,300 900 Level FlightAware ADS-B
06:05AM 51.4537 -0.6961 268° West 261 300 4,500 2,460 Climbing FlightAware ADS-B
06:05AM 51.4538 -0.7266 270° West 261 300 5,300 2,700 Climbing FlightAware ADS-B
06:05AM 51.4542 -0.7558 271° West 261 300 5,900 2,460 Climbing FlightAware ADS-B
06:05AM 51.4543 -0.7875 270° West 263 303 6,600 2,400 Climbing FlightAware ADS-B
06:06AM 51.4539 -0.8174 269° West 265 305 7,200 2,460 Climbing FlightAware ADS-B
06:06AM 51.4534 -0.8474 268° West 267 307 7,900 2,580 Climbing FlightAware ADS-B
06:06AM 51.4533 -0.8642 269° West 269 310 8,200 2,100 Climbing FlightAware ADS-B
06:06AM 51.4535 -0.8759 272° West 270 311 8,400 1,620 Climbing FlightAware ADS-B
06:06AM 51.4541 -0.8862 275° West 272 313 8,500 2,100 Climbing FlightAware ADS-B
06:06AM 51.4555 -0.9031 278° West 272 313 8,900 2,580 Climbing FlightAware ADS-B
06:06AM 51.4573 -0.9165 282° West 273 314 9,200 1,980 Climbing FlightAware ADS-B
06:07AM 51.4594 -0.9266 289° West 274 315 9,300 1,500 Climbing FlightAware ADS-B
06:07AM 51.4630 -0.9390 295° West 277 319 9,500 1,680 Climbing FlightAware ADS-B
06:07AM 51.4827 -0.9972 299° West 293 337 10,400 1,440 Climbing FlightAware ADS-B
06:07AM 51.4948 -1.0344 298° West 315 362 10,700 1,080 Climbing FlightAware ADS-B
06:08AM 51.5082 -1.0765 297° West 332 382 11,100 1,500 Climbing FlightAware ADS-B
06:08AM 51.5124 -1.0921 293° West 338 389 11,400 2,700 Climbing FlightAware ADS-B
06:08AM 51.5253 -1.1568 288° West 347 399 12,600 2,160 Climbing FlightAware ADS-B
06:09AM 51.5420 -1.2336 289° West 373 429 13,500 2,700 Climbing FlightAware ADS-B
06:09AM 51.5596 -1.3122 290° West 368 423 15,400 3,300 Climbing FlightAware ADS-B
06:10AM 51.5764 -1.3905 289° West 373 429 16,800 2,760 Climbing FlightAware ADS-B
06:10AM 51.5920 -1.4627 289° West 379 436 18,100 2,460 Climbing FlightAware ADS-B
06:11AM 51.6098 -1.5451 289° West 391 450 19,200 2,280 Climbing FlightAware ADS-B
06:11AM 51.6289 -1.6351 289° West 398 458 20,500 2,280 Climbing FlightAware ADS-B
06:12AM 51.6463 -1.7179 289° West 404 465 21,600 1,980 Climbing FlightAware ADS-B
06:12AM 51.6645 -1.8047 289° West 415 478 22,500 1,680 Climbing FlightAware ADS-B
06:13AM 51.6835 -1.8951 289° West 429 494 23,300 1,680 Climbing FlightAware ADS-B
06:13AM 51.7025 -1.9873 288° West 438 504 24,200 1,800 Climbing FlightAware ADS-B
06:14AM 51.7229 -2.0856 289° West 445 512 25,200 1,800 Climbing FlightAware ADS-B
06:14AM 51.7426 -2.1814 288° West 451 519 26,100 1,260 Climbing FlightAware ADS-B
06:15AM 51.7628 -2.2793 288° West 470 541 26,500 840 Climbing FlightAware ADS-B
06:15AM 51.7851 -2.3876 288° West 484 557 27,000 1,380 Climbing FlightAware ADS-B
06:16AM 51.8083 -2.5015 288° West 492 566 28,000 1,860 Climbing FlightAware ADS-B
06:16AM 51.8270 -2.6116 285° West 494 568 29,000 1,680 Climbing FlightAware ADS-B
06:17AM 51.8429 -2.7306 282° West 501 577 29,800 780 Climbing FlightAware ADS-B
06:18AM 51.8627 -2.8758 283° West 503 579 30,000 120 Climbing FlightAware ADS-B
06:18AM 51.8778 -2.9907 282° West 504 580 30,000  Level FlightAware ADS-B
06:19AM 51.8935 -3.1089 282° West 501 577 30,000  Level FlightAware ADS-B
06:19AM 51.9086 -3.2223 282° West 496 571 30,000  Level FlightAware UK
06:20AM 51.9160 -3.2810 282° West 495 570 30,000 -120 Level FlightAware
06:20AM 51.9388 -3.4599 282° West 494 568 29,900  Descending FlightAware UK
06:20AM 51.9370 -3.4460 282° West 492 566 30,000  Climbing FlightAware
06:21AM 51.9605 -3.6313 282° West 494 568 29,900  Descending FlightAware UK
06:21AM 51.9600 -3.6260 282° West 488 562 30,000 120 Climbing FlightAware
06:22AM 51.9780 -3.7700 282° West 484 557 30,000 120 Level FlightAware
06:23AM 51.9980 -3.9290 282° West 484 557 30,200 1,200 Climbing FlightAware
06:23AM 52.0136 -4.0563 282° West 502 578 31,600 2,160 Climbing FlightAware UK
06:23AM 52.0170 -4.0840 282° West 458 527 31,800 420 Climbing FlightAware
06:24AM 52.0340 -4.2230 281° West 454 522 32,000 120 Climbing FlightAware
06:25AM 52.0500 -4.3580 281° West 456 525 32,000 -180 Level FlightAware
06:25AM 52.0527 -4.3755 281° West 492 566 31,900 -180 Descending FlightAware UK
06:25AM 52.0670 -4.4965 281° West 498 573 31,900 120 Level FlightAware UK
06:26AM 52.0700 -4.5250 281° West 457 526 32,000 60 Climbing FlightAware
06:26AM 52.0870 -4.6670 281° West 454 522 32,000  Level FlightAware
06:27AM 52.1040 -4.8130 281° West 451 519 32,000  Level FlightAware
06:28AM 52.1250 -4.9440 285° West 445 512 32,000  Level FlightAware
06:28AM 52.1464 -5.0692 285° West 498 573 32,000  Level FlightAware UK
06:28AM 52.1470 -5.0720 285° West 447 514 32,000  Level FlightAware
06:29AM 52.1700 -5.2170 285° West 446 513 32,000  Level FlightAware
06:30AM 52.1867 -5.3228 285° West 494 568 32,000  Level FlightAware UK
06:30AM 52.1910 -5.3500 285° West 446 513 32,000  Level FlightAware
06:30AM 52.2120 -5.4870 284° West 448 516 32,000  Level FlightAware
06:31AM 52.2460 -5.6080 295° West 434 499 32,000 -120 Level FlightAware
06:32AM 52.2862 -5.7005 295° West 500 575 31,900  Descending FlightAware UK
06:32AM 52.2980 -5.7240 295° West 429 494 32,000 60 Climbing FlightAware
06:33AM 52.3520 -5.8370 308° West 428 493 32,000  Level FlightAware
06:33AM 52.3890 -5.9135 308° West 504 580 32,000  Level FlightAware UK
06:33AM 52.3980 -5.9340 308° West 422 486 32,000  Level FlightAware
06:34AM 52.4383 -6.0201 308° West 504 580 32,000  Level FlightAware UK
06:34AM 52.4480 -6.0400 308° West 417 480 32,000  Level FlightAware
06:35AM 52.4990 -6.1510 307° West 413 475 32,000  Level FlightAware
06:35AM 52.5427 -6.2439 307° West 504 580 32,000  Level FlightAware UK
06:35AM 52.5480 -6.2550 307° West 408 470 32,000  Level FlightAware
06:36AM 52.6070 -6.3810 307° West 400 460 32,000  Level FlightAware
06:36AM 52.6108 -6.3894 307° West 500 575 32,000 -180 Level FlightAware UK
06:37AM 52.6511 -6.4763 307° West 500 575 31,900  Descending FlightAware UK
06:37AM 52.6550 -6.4850 307° West 400 460 32,000  Climbing FlightAware
06:37AM 52.6914 -6.5633 307° West 500 575 31,900  Descending FlightAware UK
06:38AM 52.7030 -6.5890 307° West 400 460 32,000 60 Climbing FlightAware
06:38AM 52.7490 -6.6880 308° West 402 463 32,000 -120 Level FlightAware
06:39AM 52.7920 -6.7817 308° West 502 578 31,900  Descending FlightAware UK
06:39AM 52.7990 -6.7970 308° West 401 461 32,000 120 Climbing FlightAware
06:40AM 52.8440 -6.8950 308° West 400 460 32,000  Level FlightAware
06:40AM 52.8455 -6.8990 308° West 502 578 32,000 -240 Level FlightAware UK
06:40AM 52.8788 -6.9722 308° West 502 578 31,900  Descending FlightAware UK
06:40AM 52.8920 -7.0020 308° West 399 459 32,000 60 Climbing FlightAware
06:41AM 52.9370 -7.1010 307° West 398 458 32,000 -120 Level FlightAware
06:42AM 52.9782 -7.1915 307° West 502 578 31,900  Descending FlightAware UK
06:42AM 52.9830 -7.2030 307° West 398 458 32,000 120 Climbing FlightAware
06:42AM 53.0260 -7.2990 307° West 398 458 32,000  Level FlightAware
06:43AM 53.0770 -7.4120 307° West 401 461 32,000  Level FlightAware
06:44AM 53.1229 -7.5146 307° West 500 575 32,000  Level FlightAware UK
06:44AM 53.1210 -7.5100 307° West 401 461 32,000  Level FlightAware
06:44AM 53.1559 -7.5892 307° West 500 575 32,000  Level FlightAware UK
06:45AM 53.1630 -7.6060 307° West 402 463 32,000  Level FlightAware
06:45AM 53.2140 -7.7210 307° West 403 464 32,000  Level FlightAware
06:46AM 53.2553 -7.8142 307° West 500 575 32,000  Level FlightAware UK
06:46AM 53.2590 -7.8220 307° West 404 465 32,000  Level FlightAware
06:47AM 53.3080 -7.9350 306° West 404 465 32,000  Level FlightAware
06:47AM 53.3545 -8.0409 306° West 502 578 32,000  Level FlightAware UK
06:47AM 53.3560 -8.0440 306° West 403 464 32,000  Level FlightAware
06:48AM 53.3950 -8.1340 306° West 403 464 32,000  Level FlightAware
06:49AM 53.4460 -8.2520 306° West 403 464 32,000  Level FlightAware
06:49AM 53.4859 -8.3437 306° West 502 578 32,000  Level FlightAware UK
06:50AM 53.4890 -8.3510 306° West 401 461 32,000  Level FlightAware
06:51AM 53.5571 -8.5100 306° West 500 575 32,000  Level FlightAware UK
06:51AM 53.5650 -8.5300 306° West 397 457 32,000  Level FlightAware
06:51AM 53.6010 -8.6140 306° West 397 457 32,000  Level FlightAware
06:52AM 53.6542 -8.7379 306° West 500 575 32,000  Level FlightAware UK
06:52AM 53.6510 -8.7300 306° West 403 464 32,000  Level FlightAware
06:53AM 53.6864 -8.8141 306° West 502 578 32,000  Level FlightAware UK
06:53AM 53.6990 -8.8440 306° West 403 464 32,000  Level FlightAware
06:54AM 53.7509 -8.9672 306° West 502 578 32,000  Level FlightAware UK
06:54AM 53.7700 -9.0130 306° West 397 457 32,000  Level FlightAware
06:55AM 53.8370 -9.1730 305° West 399 459 32,000  Level FlightAware
06:56AM 53.8800 -9.2770 305° West 398 458 32,000  Level FlightAware
06:57AM 53.9420 -9.4260 305° West 402 463 32,000  Level FlightAware
06:57AM 53.9850 -9.5310 305° West 402 463 32,000  Level FlightAware
06:58AM 54.0270 -9.6330 305° West 403 464 32,000  Level FlightAware
06:59AM 54.0760 -9.7520 305° West 404 465 32,000  Level FlightAware
06:59AM 54.1180 -9.8560 305° West 404 465 32,000  Level FlightAware
07:00AM 54.1650 -9.9740 304° West 402 463 32,000  Level FlightAware
07:01AM 54.2060 -10.0760 305° West 402 463 32,000  Level FlightAware
07:01AM 54.2470 -10.1760 305° West 402 463 32,000  Level FlightAware
07:02AM 54.2980 -10.3040 304° West 401 461 32,000  Level FlightAware
07:03AM 54.3400 -10.4110 304° West 402 463 32,000  Level FlightAware
07:03AM 54.3810 -10.5150 304° West 401 461 32,000  Level FlightAware
07:04AM 54.4290 -10.6360 304° West 401 461 32,000  Level FlightAware
07:05AM 54.4720 -10.7440 304° West 403 464 32,000  Level FlightAware
07:06AM 54.5160 -10.8570 304° West 403 464 32,000  Level FlightAware
07:06AM 54.5570 -10.9650 303° West 401 461 32,000  Level FlightAware
07:07AM 54.6030 -11.0840 304° West 395 455 32,000  Level FlightAware
07:08AM 54.6450 -11.1920 304° West 396 456 32,000  Level FlightAware
07:08AM 54.6850 -11.2970 303° West 396 456 32,000  Level FlightAware
07:09AM 54.7320 -11.4190 304° West 396 456 32,000  Level FlightAware
07:10AM 54.7720 -11.5250 303° West 397 457 32,000  Level FlightAware
07:11AM 54.7940 -11.5830 303° West 397 457 32,000  Level FlightAware
07:12AM 54.9130 -11.8990 303° West 399 459 32,000  Level FlightAware
07:13AM 54.9520 -12.0050 303° West 399 459 32,000  Level FlightAware
07:14AM 54.9990 -12.1320 303° West 401 461 32,000  Level FlightAware
07:14AM 55.0450 -12.2550 303° West 403 464 32,000  Level FlightAware
07:15AM 55.0750 -12.3380 302° West 402 463 32,000  Level FlightAware
07:16AM 55.1210 -12.4640 303° West 403 464 32,000  Level FlightAware
07:16AM 55.1730 -12.6050 303° West 406 467 32,000  Level FlightAware
07:17AM 55.2130 -12.7160 302° West 407 468 32,000  Level FlightAware
07:18AM 55.2520 -12.8250 302° West 410 472 32,000  Level FlightAware
07:18AM 55.2940 -12.9430 302° West 411 473 32,000  Level FlightAware
07:19AM 55.3470 -13.0920 302° West 411 473 32,000  Level FlightAware
07:21AM 55.4170 -13.3000 301° West 411 473 32,000  Level FlightAware
07:22AM 55.4560 -13.4120 302° West 411 473 32,000  Level FlightAware
07:22AM 55.4860 -13.5000 301° West 411 473 32,000  Level FlightAware
07:23AM 55.5240 -13.6130 301° West 411 473 32,000  Level FlightAware
07:24AM 55.5540 -13.7010 301° West 411 473 32,000  Level FlightAware
07:24AM 55.5970 -13.8280 301° West 411 473 32,000  Level FlightAware
07:25AM 55.6280 -13.9190 301° West 411 473 32,000  Level FlightAware
07:26AM 55.6790 -14.0690 301° West 411 473 32,000  Level FlightAware
07:27AM 55.7110 -14.1650 301° West 411 473 32,000  Level FlightAware
07:28AM 55.7590 -14.3080 301° West 411 473 32,000  Level FlightAware
07:28AM 55.7880 -14.3910 302° West 411 473 32,000  Level FlightAware
07:31AM 55.8068 -14.8823 274° West  Level Estimated
07:32AM 55.8142 -15.0926 274° West  Level Estimated
07:33AM 55.8212 -15.3029 274° West  Level Estimated
07:34AM 55.8279 -15.5134 273° West  Level Estimated
07:35AM 55.8343 -15.7239 273° West  Level Estimated
07:36AM 55.8402 -15.9344 273° West  Level Estimated
07:37AM 55.8459 -16.1450 273° West  Level Estimated
07:38AM 55.8511 -16.3557 273° West  Level Estimated
07:39AM 55.8560 -16.5665 272° West  Level Estimated
07:40AM 55.8606 -16.7773 272° West  Level Estimated
07:41AM 55.8647 -16.9881 272° West  Level Estimated
07:42AM 55.8686 -17.1990 272° West  Level Estimated
07:43AM 55.8720 -17.4099 272° West  Level Estimated
07:44AM 55.8751 -17.6208 272° West  Level Estimated
07:45AM 55.8779 -17.8318 271° West  Level Estimated
07:46AM 55.8802 -18.0429 271° West  Level Estimated
07:47AM 55.8823 -18.2539 271° West  Level Estimated
07:48AM 55.8839 -18.4650 271° West  Level Estimated
07:49AM 55.8852 -18.6760 271° West  Level Estimated
07:50AM 55.8862 -18.8871 271° West  Level Estimated
07:51AM 55.8867 -19.0982 270° West  Level Estimated
07:52AM 55.8870 -19.3093 270° West  Level Estimated
07:53AM 55.8868 -19.5204 270° West  Level Estimated
07:54AM 55.8863 -19.7315 270° West  Level Estimated
07:54AM 57.0000 -20.0000 285° West 479 551 32,000  Level ETMS Enhanced Traffic Management System
07:55AM 55.8854 -19.9426 270° West  Level Estimated
07:56AM 55.8842 -20.1537 269° West  Level Estimated
07:57AM 55.8826 -20.3648 269° West  Level Estimated
07:58AM 55.8806 -20.5758 269° West  Level Estimated
07:59AM 55.8783 -20.7868 269° West  Level Estimated
08:00AM 57.1952 -21.4264 284° West 479 551 32,000  Level FlightAware Transoceanic
08:01AM 57.2261 -21.6656 283° West 479 551 32,000  Level FlightAware Transoceanic
08:02AM 57.2566 -21.9051 283° West 479 551 32,000  Level FlightAware Transoceanic
08:03AM 57.2867 -22.1451 283° West 479 551 32,000  Level FlightAware Transoceanic
08:04AM 57.3162 -22.3854 283° West 479 551 32,000  Level FlightAware Transoceanic
08:05AM 57.3454 -22.6262 283° West 479 551 32,000  Level FlightAware Transoceanic
08:06AM 57.3740 -22.8673 282° West 479 551 32,000  Level FlightAware Transoceanic
08:07AM 57.4022 -23.1088 282° West 479 551 32,000  Level FlightAware Transoceanic
08:08AM 57.4300 -23.3506 282° West 479 551 32,000  Level FlightAware Transoceanic
08:09AM 57.4572 -23.5928 282° West 479 551 32,000  Level FlightAware Transoceanic
08:10AM 57.4840 -23.8354 282° West 479 551 32,000  Level FlightAware Transoceanic
08:11AM 57.5104 -24.0784 281° West 479 551 32,000  Level FlightAware Transoceanic
08:12AM 57.5363 -24.3216 281° West 479 551 32,000  Level FlightAware Transoceanic
08:13AM 57.5617 -24.5653 281° West 479 551 32,000  Level FlightAware Transoceanic
08:14AM 57.5866 -24.8092 281° West 479 551 32,000  Level FlightAware Transoceanic
08:15AM 57.6111 -25.0535 280° West 479 551 32,000  Level FlightAware Transoceanic
08:16AM 57.6351 -25.2981 280° West 479 551 32,000  Level FlightAware Transoceanic
08:17AM 57.6586 -25.5431 280° West 479 551 32,000  Level FlightAware Transoceanic
08:18AM 57.6816 -25.7883 280° West 479 551 32,000  Level FlightAware Transoceanic
08:19AM 57.7042 -26.0339 280° West 479 551 32,000  Level FlightAware Transoceanic
08:20AM 57.7263 -26.2798 279° West 479 551 32,000  Level FlightAware Transoceanic
08:21AM 57.7479 -26.5259 279° West 479 551 32,000  Level FlightAware Transoceanic
08:22AM 57.7691 -26.7724 279° West 479 551 32,000  Level FlightAware Transoceanic
08:23AM 57.7897 -27.0191 279° West 479 551 32,000  Level FlightAware Transoceanic
08:24AM 57.8099 -27.2661 279° West 479 551 32,000  Level FlightAware Transoceanic
08:25AM 57.8296 -27.5134 278° West 479 551 32,000  Level FlightAware Transoceanic
08:26AM 57.8488 -27.7610 278° West 479 551 32,000  Level FlightAware Transoceanic
08:27AM 57.8676 -28.0088 278° West 479 551 32,000  Level FlightAware Transoceanic
08:28AM 57.8858 -28.2569 278° West 479 551 32,000  Level FlightAware Transoceanic
08:29AM 57.9036 -28.5052 278° West 479 551 32,000  Level FlightAware Transoceanic
08:30AM 57.9209 -28.7538 277° West 479 551 32,000  Level FlightAware Transoceanic
08:31AM 57.9377 -29.0026 277° West 479 551 32,000  Level FlightAware Transoceanic
08:32AM 57.9540 -29.2516 277° West 479 551 32,000  Level FlightAware Transoceanic
08:33AM 57.9698 -29.5009 277° West 479 551 32,000  Level FlightAware Transoceanic
08:34AM 57.9851 -29.7503 277° West 479 551 32,000  Level FlightAware Transoceanic
08:35AM 57.9593 -29.9681 257° West  Level Estimated
08:36AM 57.9330 -30.1857 257° West  Level Estimated
08:37AM 57.9063 -30.4029 257° West  Level Estimated
08:38AM 57.8793 -30.6203 257° West  Level Estimated
08:39AM 57.8518 -30.8373 257° West  Level Estimated
08:40AM 57.8240 -31.0540 257° West  Level Estimated
08:41AM 57.7958 -31.2704 256° West  Level Estimated
08:42AM 57.7673 -31.4864 256° West  Level Estimated
08:43AM 57.7384 -31.7021 256° West  Level Estimated
08:44AM 57.7091 -31.9175 256° West  Level Estimated
08:45AM 57.6794 -32.1325 256° West  Level Estimated
08:46AM 57.6494 -32.3471 255° West  Level Estimated
08:47AM 57.6191 -32.5614 255° West  Level Estimated
08:48AM 57.5883 -32.7754 255° West  Level Estimated
08:49AM 57.5572 -32.9889 255° West  Level Estimated
08:50AM 57.5258 -33.2021 255° West  Level Estimated
08:51AM 57.4939 -33.4150 255° West  Level Estimated
08:52AM 57.4618 -33.6274 254° West  Level Estimated
08:53AM 57.4292 -33.8395 254° West  Level Estimated
08:54AM 57.3964 -34.0512 254° West  Level Estimated
08:55AM 57.3631 -34.2625 254° West  Level Estimated
08:56AM 57.3295 -34.4735 254° West  Level Estimated
08:57AM 57.2956 -34.6840 253° West  Level Estimated
08:58AM 57.2613 -34.8942 253° West  Level Estimated
08:59AM 57.2266 -35.1039 253° West  Level Estimated
09:00AM 57.1916 -35.3133 253° West  Level Estimated
09:01AM 57.1563 -35.5223 253° West  Level Estimated
09:02AM 57.1206 -35.7309 253° West  Level Estimated
09:03AM 57.0845 -35.9390 252° West  Level Estimated
09:04AM 57.0482 -36.1468 252° West  Level Estimated
09:05AM 57.0115 -36.3541 252° West  Level Estimated
09:06AM 56.9744 -36.5611 252° West  Level Estimated
09:07AM 56.9370 -36.7676 252° West  Level Estimated
09:08AM 56.8992 -36.9737 252° West  Level Estimated
09:09AM 56.8611 -37.1794 251° West  Level Estimated
09:10AM 56.8227 -37.3847 251° West  Level Estimated
09:10AM 57.2333 -38.0667 250° West 450 518 32,000  Level Gander Center
09:11AM 56.7840 -37.5895 251° West  Level Estimated
09:11AM 57.2000 -38.2833 254° West 450 518 32,000  Level Gander Center
09:12AM 56.7449 -37.7940 251° West  Level Estimated
09:12AM 57.1833 -38.5167 263° West 450 518 32,000  Level Gander Center
09:13AM 56.7054 -37.9980 251° West  Level Estimated
09:13AM 57.1500 -38.7333 254° West 450 518 32,000  Level Gander Center
09:14AM 56.6657 -38.2015 251° West  Level Estimated
09:14AM 57.1167 -38.9333 253° West 450 518 32,000  Level Gander Center
09:15AM 56.6256 -38.4047 250° West  Level Estimated
09:15AM 57.0833 -39.1833 256° West 450 518 32,000  Level Gander Center
09:16AM 57.0500 -39.3833 253° West 460 529 32,000  Level Gander Center
09:17AM 57.0333 -39.6333 263° West 460 529 32,000  Level Gander Center
09:18AM 57.0000 -39.8333 253° West 450 518 32,000  Level Gander Center
09:19AM 56.9833 -40.0667 263° West 460 529 32,000  Level Gander Center
09:20AM 56.9667 -40.3000 263° West 460 529 32,000  Level Gander Center
09:21AM 56.9500 -40.5333 263° West 450 518 32,000  Level Gander Center
09:22AM 56.9500 -40.7500 270° West 450 518 32,000  Level Gander Center
09:23AM 56.9333 -40.9833 263° West 450 518 32,000  Level Gander Center
09:24AM 56.9167 -41.2167 263° West 450 518 32,000  Level Gander Center
09:25AM 56.9000 -41.4500 263° West 460 529 32,000  Level Gander Center
09:26AM 56.8833 -41.6667 262° West 460 529 32,000  Level Gander Center
09:27AM 56.8667 -41.9000 263° West 450 518 32,000  Level Gander Center
09:28AM 56.8500 -42.1333 263° West 460 529 32,000  Level Gander Center
09:29AM 56.8333 -42.3333 261° West 460 529 32,000  Level Gander Center
09:30AM 56.8000 -42.5667 255° West 460 529 32,000  Level Gander Center
09:31AM 56.7833 -42.8167 263° West 460 529 32,000  Level Gander Center
09:32AM 56.7667 -43.0500 263° West 460 529 32,000  Level Gander Center
09:33AM 56.7500 -43.2667 262° West 460 529 32,000  Level Gander Center
09:34AM 56.7333 -43.5000 263° West 460 529 32,000  Level Gander Center
09:35AM 56.7000 -43.7333 256° West 460 529 32,000  Level Gander Center
09:36AM 56.6833 -43.9500 262° West 460 529 32,000  Level Gander Center
09:37AM 56.6667 -44.1833 263° West 460 529 32,000  Level Gander Center
09:38AM 56.6500 -44.4000 262° West 460 529 32,000  Level Gander Center
09:39AM 56.6333 -44.6333 263° West 450 518 32,000  Level Gander Center
09:40AM 56.6000 -44.8667 256° West 450 518 32,000  Level Gander Center
09:41AM 56.5833 -45.0500 261° West 450 518 32,000  Level Gander Center
09:42AM 56.5500 -45.2833 256° West 450 518 32,000  Level Gander Center
09:43AM 56.5333 -45.5000 262° West 450 518 32,000  Level Gander Center
09:44AM 56.5167 -45.7333 263° West 450 518 32,000  Level Gander Center
09:45AM 56.4833 -45.9500 255° West 450 518 32,000  Level Gander Center
09:46AM 56.4667 -46.1833 263° West 450 518 32,000  Level Gander Center
09:47AM 56.4333 -46.4000 255° West 450 518 32,000  Level Gander Center
09:48AM 56.4167 -46.6333 263° West 450 518 32,000  Level Gander Center
09:49AM 56.3833 -46.8500 255° West 450 518 32,000  Level Gander Center
09:50AM 56.3667 -47.0500 262° West 450 518 32,000  Level Gander Center
09:51AM 56.3333 -47.2667 255° West 450 518 32,000  Level Gander Center
09:52AM 56.3167 -47.5000 263° West 450 518 32,000  Level Gander Center
09:53AM 56.3000 -47.6833 261° West 450 518 32,000  Level Gander Center
09:54AM 56.2667 -47.9333 257° West 440 506 32,000  Level Gander Center
09:55AM 56.2500 -48.1333 262° West 440 506 32,000  Level Gander Center
09:56AM 56.2000 -48.3000 242° Southwest 440 506 32,000  Level Gander Center
09:58AM 56.1144 -48.5688 240° Southwest  Level FlightAware Approximate
10:05AM 55.6851 -49.8738 240° Southwest  Level FlightAware Approximate
10:06AM 55.6227 -50.0579 239° Southwest  Level FlightAware Approximate
10:07AM 55.5600 -50.2414 239° Southwest  Level FlightAware Approximate
10:08AM 55.4969 -50.4243 239° Southwest  Level FlightAware Approximate
10:09AM 55.4337 -50.6067 239° Southwest  Level FlightAware Approximate
10:10AM 55.3701 -50.7884 238° Southwest  Level FlightAware Approximate
10:11AM 55.3063 -50.9696 238° Southwest  Level FlightAware Approximate
10:12AM 55.2422 -51.1501 238° Southwest  Level FlightAware Approximate
10:13AM 55.1779 -51.3301 238° Southwest  Level FlightAware Approximate
10:14AM 55.1133 -51.5095 238° Southwest  Level FlightAware Approximate
10:15AM 55.0484 -51.6884 238° Southwest  Level FlightAware Approximate
10:16AM 54.9833 -51.8666 238° Southwest  Level FlightAware Approximate
10:17AM 54.9179 -52.0443 237° Southwest  Level FlightAware Approximate
10:18AM 54.8523 -52.2214 237° Southwest  Level FlightAware Approximate
10:19AM 54.7864 -52.3979 237° Southwest  Level FlightAware Approximate
10:20AM 54.7202 -52.5738 237° Southwest  Level FlightAware Approximate
10:21AM 54.6538 -52.7492 237° Southwest  Level FlightAware Approximate
10:22AM 54.5871 -52.9240 237° Southwest  Level FlightAware Approximate
10:23AM 54.5202 -53.0982 237° Southwest  Level FlightAware Approximate
10:24AM 54.4530 -53.2719 236° Southwest  Level FlightAware Approximate
10:25AM 54.3856 -53.4449 236° Southwest  Level FlightAware Approximate
10:26AM 54.3180 -53.6175 236° Southwest  Level FlightAware Approximate
10:27AM 54.2500 -53.7894 236° Southwest  Level FlightAware Approximate
10:28AM 54.1819 -53.9608 236° Southwest  Level FlightAware Approximate
10:29AM 54.1135 -54.1316 236° Southwest  Level FlightAware Approximate
10:29AM 54.8333 -54.9500 232° Southwest 430 495 32,000  Level Gander Center
10:30AM 54.0449 -54.3018 236° Southwest  Level FlightAware Approximate
10:30AM 54.8000 -55.1333 253° West 430 495 32,000  Level Gander Center
10:31AM 53.9760 -54.4715 235° Southwest  Level FlightAware Approximate
10:31AM 54.7500 -55.3167 245° Southwest 430 495 32,000  Level Gander Center
10:32AM 53.9069 -54.6406 235° Southwest  Level FlightAware Approximate
10:32AM 54.7000 -55.5000 245° Southwest 430 495 32,000  Level Gander Center
10:33AM 53.8309 -54.8042 232° Southwest  Level Estimated
10:33AM 54.6167 -55.6833 232° Southwest 420 483 32,000  Level Gander Center
10:34AM 53.7547 -54.9671 232° Southwest  Level Estimated
10:34AM 54.5500 -55.8333 233° Southwest 430 495 32,000  Level Gander Center
10:35AM 53.6782 -55.1295 232° Southwest  Level Estimated
10:35AM 54.4833 -55.9833 233° Southwest 430 495 32,900  Level Gander Center
10:36AM 54.4167 -56.1333 233° Southwest 420 483 34,600 1,380 Climbing Gander Center
10:37AM 54.3500 -56.2833 233° Southwest 430 495 35,400 660 Climbing Moncton Center
10:38AM 54.2333 -56.4833 225° Southwest 440 506 36,000 240 Climbing Gander Center
10:39AM 54.1667 -56.6333 233° Southwest 450 518 36,000  Level Gander Center
10:40AM 54.0833 -56.7833 227° Southwest 460 529 36,000  Level Gander Center
10:41AM 53.9833 -56.9667 227° Southwest 460 529 36,000  Level Gander Center
10:42AM 53.9167 -57.1167 233° Southwest 460 529 36,000  Level Gander Center
10:43AM 53.8333 -57.2833 230° Southwest 460 529 36,000  Level Gander Center
10:44AM 53.7500 -57.4333 227° Southwest 450 518 36,000  Level Gander Center
10:45AM 53.6667 -57.6167 233° Southwest 450 518 36,000  Level Gander Center
10:46AM 53.5833 -57.7667 227° Southwest 450 518 36,000  Level Gander Center
10:47AM 53.4833 -57.9167 222° Southwest 450 518 36,000  Level Gander Center
10:48AM 53.4333 -58.0500 238° Southwest 460 529 36,000  Level Moncton Center
10:49AM 53.3333 -58.2000 222° Southwest 460 529 36,000  Level Moncton Center
10:50AM 53.2500 -58.3500 227° Southwest 450 518 36,000  Level Moncton Center
10:51AM 53.1667 -58.5167 230° Southwest 450 518 36,000  Level Moncton Center
10:52AM 53.0833 -58.6667 227° Southwest 450 518 36,000  Level Moncton Center
10:53AM 53.0000 -58.8167 227° Southwest 460 529 36,000  Level Moncton Center
10:54AM 52.9167 -58.9667 227° Southwest 450 518 36,000  Level Moncton Center
10:55AM 52.8167 -59.1333 225° Southwest 450 518 36,000  Level Moncton Center
10:56AM 52.7333 -59.2833 227° Southwest 450 518 36,000  Level Moncton Center
10:57AM 52.6500 -59.4333 228° Southwest 450 518 36,000  Level Moncton Center
10:58AM 52.5500 -59.5833 222° Southwest 450 518 36,000  Level Moncton Center
10:59AM 52.4833 -59.7333 234° Southwest 450 518 36,000  Level Moncton Center
11:00AM 52.3833 -59.8667 219° Southwest 450 518 36,000  Level Moncton Center
11:01AM 52.3000 -60.0167 228° Southwest 450 518 36,000  Level Moncton Center
11:02AM 52.2167 -60.1833 231° Southwest 460 529 36,000  Level Moncton Center
11:03AM 52.1333 -60.3333 228° Southwest 460 529 36,000  Level Moncton Center
11:04AM 52.0333 -60.4833 223° Southwest 460 529 36,000  Level Moncton Center
11:05AM 51.9500 -60.6167 225° Southwest 460 529 36,000  Level Moncton Center
11:06AM 51.8667 -60.7667 228° Southwest 460 529 36,000  Level Moncton Center
11:07AM 51.7667 -60.9333 226° Southwest 460 529 36,000  Level Moncton Center
11:08AM 51.6833 -61.0833 228° Southwest 460 529 36,000  Level Moncton Center
11:09AM 51.5833 -61.2167 220° Southwest 460 529 36,000  Level Moncton Center
11:10AM 51.5000 -61.3667 228° Southwest 460 529 36,000  Level Moncton Center
11:11AM 51.4167 -61.5333 231° Southwest 460 529 36,000  Level Moncton Center
11:12AM 51.3167 -61.6667 220° Southwest 460 529 36,000  Level Moncton Center
11:13AM 51.2333 -61.8000 225° Southwest 460 529 36,000  Level Moncton Center
11:14AM 51.1333 -61.9667 226° Southwest 460 529 36,000  Level Moncton Center
11:15AM 51.0500 -62.0833 221° Southwest 470 541 36,000  Level Moncton Center
11:16AM 50.9500 -62.2500 226° Southwest 460 529 36,000  Level Moncton Center
11:17AM 50.8667 -62.3833 225° Southwest 460 529 36,000  Level Moncton Center
11:18AM 50.7667 -62.5500 227° Southwest 460 529 36,000  Level Moncton Center
11:19AM 50.6833 -62.6833 225° Southwest 470 541 36,000  Level Moncton Center
11:20AM 50.5833 -62.8167 220° Southwest 460 529 36,000  Level Moncton Center
11:21AM 50.4833 -62.9500 220° Southwest 470 541 36,000  Level Moncton Center
11:22AM 50.4000 -63.0833 226° Southwest 460 529 36,000  Level Moncton Center
11:23AM 50.3000 -63.2500 227° Southwest 460 529 36,000  Level Moncton Center
11:24AM 50.2167 -63.3833 226° Southwest 460 529 36,000  Level Moncton Center
11:25AM 50.1167 -63.5167 221° Southwest 460 529 36,000  Level Moncton Center
11:26AM 50.0167 -63.6333 217° Southwest 460 529 36,000  Level Moncton Center
11:27AM 49.9167 -63.8000 227° Southwest 460 529 36,000  Level Moncton Center
11:28AM 49.8500 -63.9333 232° Southwest 460 529 36,000  Level Moncton Center
11:29AM 49.7500 -64.0667 221° Southwest 470 541 36,000  Level Moncton Center
11:30AM 49.6333 -64.2167 220° Southwest 470 541 36,000  Level Moncton Center
11:31AM 49.5500 -64.3500 226° Southwest 470 541 36,000  Level Moncton Center
11:32AM 49.4500 -64.4667 217° Southwest 470 541 36,000  Level Moncton Center
11:33AM 49.3500 -64.6333 227° Southwest 470 541 36,000  Level Moncton Center
11:34AM 49.2500 -64.7500 217° Southwest 470 541 36,000  Level Moncton Center
11:35AM 49.1667 -64.8833 226° Southwest 480 552 36,000  Level Moncton Center
11:36AM 49.0667 -65.0333 225° Southwest 480 552 36,000  Level Moncton Center
11:37AM 48.9667 -65.1667 221° Southwest 480 552 36,000  Level Moncton Center
11:38AM 48.8667 -65.2833 218° Southwest 480 552 36,000  Level Moncton Center
11:39AM 48.7667 -65.4333 225° Southwest 480 552 36,000  Level Moncton Center
11:40AM 48.6833 -65.5667 227° Southwest 480 552 36,000  Level Moncton Center
11:41AM 48.5833 -65.7167 225° Southwest 470 541 36,000  Level Moncton Center
11:42AM 48.4833 -65.8333 218° Southwest 480 552 36,000  Level Moncton Center
11:43AM 48.3833 -65.9833 225° Southwest 480 552 36,000  Level Moncton Center
11:44AM 48.2667 -66.1000 214° Southwest 480 552 36,000  Level Moncton Center
11:45AM 48.1667 -66.2333 222° Southwest 480 552 36,000  Level Moncton Center
11:46AM 48.0667 -66.3833 225° Southwest 480 552 36,000  Level Moncton Center
11:47AM 47.9833 -66.5000 223° Southwest 480 552 36,000  Level Moncton Center
11:48AM 47.8667 -66.6500 221° Southwest 480 552 36,000  Level Moncton Center
11:54AM 47.2210 -67.4170 221° Southwest 496 571 36,000  Level FlightAware
11:55AM 47.1030 -67.5190 210° Southwest 495 570 36,000  Level FlightAware
11:56AM 47.0120 -67.5980 211° Southwest 496 571 36,000  Level FlightAware
11:57AM 46.8970 -67.6970 210° Southwest 495 570 36,000  Level FlightAware
11:58AM 46.8150 -67.7670 210° Southwest 494 568 36,000  Level FlightAware
11:58AM 46.7470 -67.8250 210° Southwest 493 567 36,000  Level FlightAware
11:59AM 46.6740 -67.8870 210° Southwest 492 566 36,000  Level FlightAware
12:00PM 46.5900 -67.9580 210° Southwest 494 568 36,000  Level FlightAware
12:00PM 46.5150 -68.0210 210° Southwest 494 568 36,000  Level FlightAware
12:01PM 46.4210 -68.1000 210° Southwest 497 572 36,000  Level FlightAware
12:02PM 46.3310 -68.1750 210° Southwest 500 575 36,000  Level FlightAware
12:03PM 46.2420 -68.2500 210° Southwest 504 580 36,000  Level FlightAware
12:03PM 46.1610 -68.3170 210° Southwest 506 582 36,000  Level FlightAware
12:04PM 46.0800 -68.3840 210° Southwest 503 579 36,000  Level FlightAware
12:05PM 46.0020 -68.4490 210° Southwest 502 578 36,000  Level FlightAware
12:05PM 45.9050 -68.5280 210° Southwest 499 574 36,000  Level FlightAware
12:06PM 45.8350 -68.5860 210° Southwest 492 566 36,000  Level FlightAware
12:07PM 45.7430 -68.6610 210° Southwest 488 562 36,000  Level FlightAware
12:07PM 45.6600 -68.7290 210° Southwest 482 555 36,000  Level FlightAware
12:08PM 45.5790 -68.7940 209° Southwest 482 555 36,000  Level FlightAware
12:09PM 45.5120 -68.8490 210° Southwest 483 556 36,000  Level FlightAware
12:09PM 45.4200 -68.9220 209° Southwest 484 557 36,000  Level FlightAware
12:10PM 45.3310 -68.9940 210° Southwest 486 559 36,000  Level FlightAware
12:11PM 45.2540 -69.0550 209° Southwest 486 559 36,000  Level FlightAware
12:12PM 45.1740 -69.1190 209° Southwest 488 562 36,000  Level FlightAware
12:12PM 45.0880 -69.1870 209° Southwest 484 557 36,000  Level FlightAware
12:13PM 45.0090 -69.2500 209° Southwest 483 556 36,000  Level FlightAware
12:14PM 44.9260 -69.3150 209° Southwest 483 556 36,000  Level FlightAware
12:14PM 44.8370 -69.3860 210° Southwest 485 558 36,000  Level FlightAware
12:15PM 44.7750 -69.4340 209° Southwest 487 560 36,000  Level FlightAware
12:16PM 44.6790 -69.5090 209° Southwest 491 565 36,000  Level FlightAware
12:17PM 44.5920 -69.5770 209° Southwest 492 566 36,000  Level FlightAware
12:17PM 44.5200 -69.6330 209° Southwest 495 570 36,000  Level FlightAware
12:18PM 44.4200 -69.7110 209° Southwest 499 574 36,000  Level FlightAware
12:19PM 44.3480 -69.7660 209° Southwest 501 577 36,000  Level FlightAware
12:19PM 44.2550 -69.8370 209° Southwest 504 580 36,000  Level FlightAware
12:20PM 44.1370 -69.9280 209° Southwest 504 580 36,000  Level FlightAware
12:21PM 44.0550 -69.9900 209° Southwest 506 582 36,000  Level FlightAware
12:22PM 43.9720 -70.0530 209° Southwest 509 586 36,000  Level FlightAware
12:22PM 43.8810 -70.1220 209° Southwest 512 589 36,000  Level FlightAware
12:23PM 43.7900 -70.1910 209° Southwest 514 592 36,000  Level FlightAware
12:24PM 43.7030 -70.2560 208° Southwest 511 588 36,000  Level FlightAware
12:24PM 43.6110 -70.3260 209° Southwest 505 581 36,000  Level FlightAware
12:25PM 43.5170 -70.3960 208° Southwest 501 577 36,000  Level FlightAware
12:26PM 43.4150 -70.4710 208° Southwest 500 575 36,000 -300 Level FlightAware
12:27PM 43.3350 -70.5310 209° Southwest 498 573 35,600 -1,320 Descending FlightAware
12:27PM 43.2460 -70.5970 208° Southwest 493 567 34,200 -2,040 Descending FlightAware
12:28PM 43.1610 -70.6590 208° Southwest 484 557 32,700 -2,040 Descending FlightAware
12:29PM 43.0810 -70.7180 208° Southwest 468 539 31,400 -1,680 Descending FlightAware
12:30PM 42.9980 -70.7790 208° Southwest 469 540 30,300 -1,020 Descending FlightAware
12:30PM 42.9220 -70.8340 208° Southwest 462 532 30,000 -240 Descending FlightAware
12:31PM 42.8400 -70.8940 208° Southwest 465 535 30,000  Level FlightAware
12:32PM 42.7650 -70.9360 202° Southwest 473 544 30,000  Level FlightAware
12:32PM 42.6760 -70.9790 200° South 478 550 30,000  Level FlightAware
12:33PM 42.5800 -71.0270 200° South 475 547 30,000  Level FlightAware
12:34PM 42.5020 -71.0750 204° Southwest 472 543 30,000  Level FlightAware
12:34PM 42.4280 -71.1260 207° Southwest 471 542 30,000  Level FlightAware
12:35PM 42.3460 -71.1840 208° Southwest 472 543 30,000  Level FlightAware
12:36PM 42.2660 -71.2410 208° Southwest 474 545 30,000  Level FlightAware
12:37PM 42.1710 -71.3070 207° Southwest 475 547 30,000  Level FlightAware
12:37PM 42.1080 -71.3510 207° Southwest 476 548 30,000  Level FlightAware
12:38PM 42.0230 -71.4110 208° Southwest 478 550 30,000  Level FlightAware
12:39PM 41.9410 -71.4670 207° Southwest 478 550 30,000  Level FlightAware
12:39PM 41.8460 -71.5330 207° Southwest 473 544 30,000  Level FlightAware
12:40PM 41.7380 -71.6080 207° Southwest 472 543 30,000 -300 Level FlightAware
12:41PM 41.6560 -71.6640 207° Southwest 464 534 29,500 -1,200 Descending FlightAware
12:42PM 41.5810 -71.7150 207° Southwest 449 517 28,400 -1,740 Descending FlightAware
12:42PM 41.5040 -71.7680 207° Southwest 435 501 27,200 -1,860 Descending FlightAware
12:43PM 41.3970 -71.8410 207° Southwest 422 486 25,300 -1,920 Descending FlightAware
12:44PM 41.3380 -71.8810 207° Southwest 417 480 24,200 -1,020 Descending FlightAware
12:45PM 41.2630 -71.9420 211° Southwest 404 465 24,000 -180 Descending FlightAware
12:45PM 41.2070 -71.9980 217° Southwest 404 465 24,000 -1,020 Level FlightAware
12:46PM 41.1920 -72.0180 225° Southwest 392 451 22,300 -2,640 Descending FlightAware
12:47PM 41.0840 -72.1820 229° Southwest 365 420 19,600 -2,040 Descending FlightAware
12:48PM 41.0650 -72.2540 251° West 365 420 19,600  Level FlightAware
12:48PM 41.0490 -72.3190 252° West 365 420 19,600 -2,820 Level FlightAware
12:49PM 41.0210 -72.4380 253° West 344 396 15,700 -3,660 Descending FlightAware
12:50PM 41.0000 -72.5210 251° West 343 395 14,200 -1,560 Descending FlightAware
12:51PM 40.9770 -72.6100 251° West 340 391 13,300 -600 Descending FlightAware
12:51PM 40.9600 -72.6740 251° West 340 391 13,300 -1,200 Level FlightAware
12:52PM 40.9350 -72.7780 252° West 287 330 11,600 -1,620 Descending FlightAware
12:52PM 40.9240 -72.8010 238° Southwest 291 335 11,600 -360 Level FlightAware
12:53PM 40.8820 -72.8500 221° Southwest 296 341 11,300 -900 Descending FlightAware
12:54PM 40.8390 -72.9020 222° Southwest 292 336 10,400 -1,320 Descending FlightAware
12:54PM 40.8100 -72.9370 222° Southwest 291 335 9,800 -1,380 Descending FlightAware
12:55PM 40.7940 -72.9570 223° Southwest 290 334 9,400 -1,380 Descending FlightAware
12:55PM 40.7750 -72.9900 233° Southwest 283 326 8,900 -1,320 Descending FlightAware
12:55PM 40.7620 -73.0250 244° Southwest 282 325 8,400 -1,200 Descending FlightAware
12:56PM 40.7560 -73.0410 244° Southwest 280 322 8,200 -1,140 Descending FlightAware
12:56PM 40.7430 -73.0760 244° Southwest 278 320 7,700 -1,440 Descending FlightAware
12:56PM 40.7260 -73.1240 245° Southwest 281 323 7,000 -1,500 Descending FlightAware
12:57PM 40.7150 -73.1560 246° West 282 325 6,500 -1,320 Descending FlightAware
12:57PM 40.7010 -73.1970 246° West 280 322 6,000 -1,020 Descending FlightAware
12:58PM 40.6920 -73.2330 252° West 274 315 5,600 -1,020 Descending FlightAware
12:58PM 40.7120 -73.2870 296° West 261 300 5,000 -960 Descending FlightAware
12:59PM 40.7260 -73.3110 308° West 251 289 4,800 -600 Descending FlightAware
12:59PM 40.7470 -73.3470 308° West 237 273 4,500 -720 Descending FlightAware
01:00PM 40.7780 -73.3990 308° West 222 255 3,900 -900 Descending FlightAware
01:00PM 40.7880 -73.4300 293° West 220 253 3,400 -780 Descending FlightAware
01:01PM 40.7870 -73.4680 268° West 210 242 3,200 -480 Descending FlightAware
01:01PM 40.7860 -73.4840 265° West 200 230 3,100 -300 Descending FlightAware
01:01PM 40.7840 -73.5170 265° West 182 209 3,000 -480 Descending FlightAware
01:02PM 40.7820 -73.5460 265° West 182 209 2,700 -480 Descending FlightAware
01:02PM 40.7790 -73.5770 263° West 163 188 2,600 -300 Descending FlightAware
01:03PM 40.7750 -73.5860 240° Southwest 165 190 2,500 -660 Descending FlightAware
01:03PM 40.7620 -73.6070 231° Southwest 163 188 2,200 -600 Descending FlightAware
01:03PM 40.7550 -73.6200 235° Southwest 161 185 2,100 -420 Descending FlightAware
01:04PM 40.7420 -73.6430 233° Southwest 160 184 1,900 -480 Descending FlightAware
01:04PM 40.7290 -73.6640 231° Southwest 159 183 1,700 -480 Descending FlightAware
01:05PM 40.7170 -73.6780 221° Southwest 158 182 1,500 -660 Descending FlightAware
01:05PM 40.6980 -73.7000 221° Southwest 152 175 1,100 -900 Descending FlightAware
01:06PM 40.6830 -73.7180 222° Southwest 151 174 600 -900 Descending FlightAware
01:06PM 40.6710 -73.7340 225° Southwest 146 168 300 -720 Descending FlightAware
01:07PM 40.6450 -73.7550 212° Southwest 147 169 -420 Descending FlightAware
01:07PM 40.6330 -73.7650 212° Southwest 49 56  Level FlightAware
01:08PM 40.6300 -73.7680 217° Southwest 22 25  Level FlightAware
01:08PM 40.6300 -73.7710 270° West 19 22  Level FlightAware
01:09PM 40.6320 -73.7750 303° West 24 28  Level FlightAware